createdAt,value
2023-10-10T00:17:01.016Z,23.30
2023-10-10T00:19:36.442Z,23.30
2023-10-10T00:22:06.899Z,23.40
2023-10-10T00:24:35.462Z,23.40
2023-10-10T00:27:14.264Z,23.40
2023-10-10T00:29:44.903Z,23.40
2023-10-10T00:48:01.792Z,23.30
2023-10-10T00:50:35.738Z,23.30
2023-10-10T00:53:07.467Z,23.30
2023-10-10T00:55:37.565Z,23.30
2023-10-10T00:58:09.202Z,23.30
2023-10-10T01:18:01.488Z,23.40
2023-10-10T01:20:36.328Z,23.30
2023-10-10T01:23:06.038Z,23.40
2023-10-10T01:25:44.109Z,23.30
2023-10-10T01:28:24.194Z,23.30
2023-10-10T01:46:44.047Z,23.30
2023-10-10T01:49:16.952Z,23.30
2023-10-10T01:51:46.106Z,23.30
2023-10-10T01:54:18.488Z,23.30
2023-10-10T01:56:47.943Z,23.30
2023-10-10T01:59:20.736Z,23.30
2023-10-10T02:17:40.510Z,23.30
2023-10-10T02:20:34.673Z,23.30
2023-10-10T02:23:10.211Z,23.30
2023-10-10T02:25:47.057Z,23.30
2023-10-10T02:28:22.204Z,23.30
2023-10-10T02:45:37.444Z,23.20
2023-10-10T02:48:09.106Z,23.20
2023-10-10T02:50:43.289Z,23.20
2023-10-10T02:53:11.795Z,23.20
2023-10-10T02:55:42.862Z,23.20
2023-10-10T02:58:21.590Z,23.20
2023-10-10T03:17:00.513Z,23.30
2023-10-10T03:19:30.066Z,23.20
2023-10-10T03:22:17.127Z,23.20
2023-10-10T03:25:08.536Z,23.20
2023-10-10T03:27:55.897Z,23.20
2023-10-10T03:46:43.618Z,23.10
2023-10-10T03:49:29.642Z,23.20
2023-10-10T03:52:15.711Z,23.10
2023-10-10T03:55:01.715Z,23.20
2023-10-10T03:57:47.731Z,23.20
2023-10-10T04:18:11.587Z,23.20
2023-10-10T04:20:57.552Z,23.20
2023-10-10T04:23:43.293Z,23.20
2023-10-10T04:26:28.927Z,23.20
2023-10-10T04:29:15.074Z,23.10
2023-10-10T04:47:52.629Z,23.10
2023-10-10T04:50:38.846Z,23.10
2023-10-10T04:53:24.946Z,23.10
2023-10-10T04:56:10.650Z,23.10
2023-10-10T04:58:56.770Z,23.20
2023-10-10T05:01:42.816Z,23.20
2023-10-10T05:04:29.990Z,23.20
2023-10-10T05:07:16.052Z,23.20
2023-10-10T05:10:01.800Z,23.20
2023-10-10T05:12:47.891Z,23.20
2023-10-10T05:15:33.728Z,23.20
2023-10-10T05:18:19.972Z,23.30
2023-10-10T05:21:12.570Z,23.30
2023-10-10T05:23:48.921Z,23.30
2023-10-10T05:26:20.284Z,23.40
2023-10-10T05:28:49.856Z,23.50
2023-10-10T05:31:22.319Z,23.50
2023-10-10T05:33:52.081Z,23.40
2023-10-10T05:36:22.000Z,23.30
2023-10-10T05:38:51.602Z,23.40
2023-10-10T05:41:23.518Z,23.40
2023-10-10T05:43:51.976Z,23.40
2023-10-10T05:46:20.457Z,23.40
2023-10-10T05:48:48.897Z,23.40
2023-10-10T05:51:17.396Z,23.40
2023-10-10T05:53:47.678Z,23.40
2023-10-10T05:56:17.904Z,23.40
2023-10-10T05:58:48.388Z,23.40
2023-10-10T06:01:18.487Z,23.40
2023-10-10T06:03:47.438Z,23.40
2023-10-10T06:06:19.278Z,23.40
2023-10-10T06:08:58.055Z,23.40
2023-10-10T06:11:26.687Z,23.50
2023-10-10T06:13:55.313Z,23.50
2023-10-10T06:16:25.205Z,23.50
2023-10-10T06:18:53.771Z,23.50
2023-10-10T06:21:22.165Z,23.40
2023-10-10T06:23:52.500Z,23.50
2023-10-10T06:26:23.066Z,23.40
2023-10-10T06:28:54.734Z,23.40
2023-10-10T06:31:35.039Z,23.40
2023-10-10T06:34:21.048Z,23.50
2023-10-10T06:36:50.885Z,23.50
2023-10-10T06:39:20.227Z,23.50
2023-10-10T06:41:51.685Z,23.50
2023-10-10T06:44:34.742Z,23.50
2023-10-10T06:47:10.895Z,23.50
2023-10-10T06:49:55.292Z,23.40
2023-10-10T06:52:24.881Z,23.40
2023-10-10T06:54:57.255Z,23.40
2023-10-10T06:57:39.210Z,23.40
2023-10-10T07:00:29.463Z,23.40
2023-10-10T07:02:58.882Z,23.40
2023-10-10T07:05:35.020Z,23.40
2023-10-10T07:08:15.062Z,23.40
2023-10-10T07:10:46.665Z,23.40
2023-10-10T07:13:15.681Z,23.30
2023-10-10T07:15:52.211Z,23.30
2023-10-10T07:18:24.619Z,23.30
2023-10-10T07:21:19.539Z,23.30
2023-10-10T07:24:04.083Z,23.30
2023-10-10T07:26:42.399Z,23.20
2023-10-10T07:29:37.586Z,23.30
2023-10-10T07:32:17.182Z,23.30
2023-10-10T07:34:50.664Z,23.30
2023-10-10T07:37:19.820Z,23.30
2023-10-10T07:40:19.237Z,23.30
2023-10-10T07:42:51.976Z,23.30
2023-10-10T07:45:34.347Z,23.30
2023-10-10T07:48:20.745Z,23.20
2023-10-10T07:50:49.701Z,23.30
2023-10-10T07:53:19.563Z,23.30
2023-10-10T07:56:00.227Z,23.30
2023-10-10T07:58:52.582Z,23.30
2023-10-10T08:01:22.086Z,23.40
2023-10-10T08:03:51.076Z,23.40
2023-10-10T08:06:22.998Z,23.50
2023-10-10T08:09:10.909Z,23.50
2023-10-10T08:11:39.650Z,23.50
2023-10-10T08:14:10.939Z,23.50
2023-10-10T08:16:41.504Z,23.40
2023-10-10T08:19:11.725Z,23.40
2023-10-10T08:21:50.591Z,23.40
2023-10-10T08:24:21.169Z,23.40
2023-10-10T08:26:52.769Z,23.40
2023-10-10T08:29:28.460Z,23.40
2023-10-10T08:31:57.038Z,23.40
2023-10-10T08:34:25.553Z,23.40
2023-10-10T08:37:03.834Z,23.30
2023-10-10T08:39:36.607Z,23.30
2023-10-10T08:42:12.087Z,23.40
2023-10-10T08:44:43.190Z,23.40
2023-10-10T08:47:20.361Z,23.40
2023-10-10T08:49:49.578Z,23.40
2023-10-10T08:52:21.241Z,23.40
2023-10-10T08:54:52.957Z,23.30
2023-10-10T08:57:28.097Z,23.40
2023-10-10T08:59:57.929Z,23.30
2023-10-10T09:02:34.605Z,23.30
2023-10-10T09:05:06.516Z,23.30
2023-10-10T09:07:36.002Z,23.30
2023-10-10T09:10:07.207Z,23.20
2023-10-10T09:12:53.765Z,23.30
2023-10-10T09:15:25.073Z,23.30
2023-10-10T09:17:57.032Z,23.30
2023-10-10T09:20:29.763Z,23.30
2023-10-10T09:23:05.788Z,23.30
2023-10-10T09:25:43.506Z,23.30
2023-10-10T09:28:17.304Z,23.30
2023-10-10T09:30:59.997Z,23.30
2023-10-10T09:33:31.204Z,23.30
2023-10-10T09:36:09.762Z,23.30
2023-10-10T09:38:45.115Z,23.40
2023-10-10T09:41:28.591Z,23.40
2023-10-10T09:44:21.423Z,23.50
2023-10-10T09:47:14.473Z,23.50
2023-10-10T09:49:45.180Z,23.60
2023-10-10T09:52:33.403Z,23.60
2023-10-10T09:55:10.178Z,23.60
2023-10-10T09:57:44.062Z,23.50
2023-10-10T10:00:26.736Z,23.60
2023-10-10T10:03:01.264Z,23.60
2023-10-10T10:05:31.472Z,23.60
2023-10-10T10:08:14.286Z,23.50
2023-10-10T10:10:50.851Z,23.50
2023-10-10T10:13:40.366Z,23.50
2023-10-10T10:16:33.635Z,23.60
2023-10-10T10:19:15.411Z,23.50
2023-10-10T10:21:54.660Z,23.50
2023-10-10T10:24:32.263Z,23.60
2023-10-10T10:27:24.396Z,23.50
2023-10-10T10:29:57.205Z,23.60
2023-10-10T10:32:26.229Z,23.50
2023-10-10T10:34:58.459Z,23.50
2023-10-10T10:37:29.540Z,23.50
2023-10-10T10:40:22.024Z,23.60
2023-10-10T10:42:52.979Z,23.50
2023-10-10T10:45:35.256Z,23.60
2023-10-10T10:48:09.494Z,23.60
2023-10-10T10:50:46.754Z,23.60
2023-10-10T10:53:33.380Z,23.60
2023-10-10T10:56:30.077Z,23.50
2023-10-10T10:59:14.148Z,23.60
2023-10-10T11:01:47.456Z,23.50
2023-10-10T11:04:19.261Z,23.60
2023-10-10T11:07:01.031Z,23.50
2023-10-10T11:09:31.395Z,23.50
2023-10-10T11:12:06.509Z,23.50
2023-10-10T11:14:45.850Z,23.50
2023-10-10T11:17:19.747Z,23.40
2023-10-10T11:19:54.765Z,23.40
2023-10-10T11:22:40.343Z,23.40
2023-10-10T11:25:13.084Z,23.40
2023-10-10T11:27:50.656Z,23.40
2023-10-10T11:30:25.822Z,23.40
2023-10-10T11:33:16.283Z,23.40
2023-10-10T11:35:47.945Z,23.40
2023-10-10T11:38:35.778Z,23.30
2023-10-10T11:41:10.243Z,23.30
2023-10-10T11:44:02.916Z,23.30
2023-10-10T11:46:32.415Z,23.30
2023-10-10T11:49:02.112Z,23.30
2023-10-10T11:51:37.586Z,23.40
2023-10-10T11:54:07.742Z,23.40
2023-10-10T11:56:36.583Z,23.40
2023-10-10T11:59:11.087Z,23.40
2023-10-10T12:01:53.093Z,23.40
2023-10-10T12:04:33.249Z,23.30
2023-10-10T12:07:06.459Z,23.30
2023-10-10T12:09:39.923Z,23.30
2023-10-10T12:12:08.497Z,23.30
2023-10-10T12:14:36.889Z,23.30
2023-10-10T12:17:07.451Z,23.30
2023-10-10T12:19:44.903Z,23.30
2023-10-10T12:22:13.736Z,23.30
2023-10-10T12:24:43.490Z,23.30
2023-10-10T12:27:12.054Z,23.30
2023-10-10T12:29:42.209Z,23.30
2023-10-10T12:32:23.601Z,23.30
2023-10-10T12:34:52.104Z,23.30
2023-10-10T12:37:24.335Z,23.20
2023-10-10T12:39:54.154Z,23.30
2023-10-10T12:42:22.556Z,23.30
2023-10-10T12:44:50.942Z,23.30
2023-10-10T12:47:20.691Z,23.30
2023-10-10T12:49:49.510Z,23.30
2023-10-10T12:52:19.871Z,23.30
2023-10-10T12:54:59.479Z,23.30
2023-10-10T12:57:34.077Z,23.30
2023-10-10T13:00:24.605Z,23.30
2023-10-10T13:02:54.745Z,23.30
2023-10-10T13:05:28.376Z,23.30
2023-10-10T13:08:00.205Z,23.20
2023-10-10T13:10:34.366Z,23.20
2023-10-10T13:13:04.212Z,23.20
2023-10-10T13:15:48.036Z,23.20
2023-10-10T13:18:21.861Z,23.20
2023-10-10T13:20:51.960Z,23.20
2023-10-10T13:23:21.335Z,23.20
2023-10-10T13:25:50.494Z,23.20
2023-10-10T13:28:22.127Z,23.20
2023-10-10T13:30:51.440Z,23.20
2023-10-10T13:33:21.947Z,23.20
2023-10-10T13:35:50.964Z,23.20
2023-10-10T13:38:19.545Z,23.20
2023-10-10T13:40:50.365Z,23.20
2023-10-10T13:43:20.353Z,23.20
2023-10-10T13:45:50.380Z,23.30
2023-10-10T13:48:20.383Z,23.30
2023-10-10T13:50:52.954Z,23.30
2023-10-10T13:53:22.076Z,23.20
2023-10-10T13:55:52.535Z,23.20
2023-10-10T13:58:22.348Z,23.20
2023-10-10T14:01:15.203Z,23.20
2023-10-10T14:03:47.672Z,23.20
2023-10-10T14:06:17.869Z,23.20
2023-10-10T14:08:48.802Z,23.20
2023-10-10T14:11:23.009Z,23.20
2023-10-10T14:13:54.626Z,23.20
2023-10-10T14:16:25.089Z,23.20
2023-10-10T14:18:53.603Z,23.30
2023-10-10T14:21:26.563Z,23.30
2023-10-10T14:24:03.289Z,23.20
2023-10-10T14:26:32.365Z,23.20
2023-10-10T14:29:06.175Z,23.20
2023-10-10T14:31:35.920Z,23.30
2023-10-10T14:34:06.807Z,23.30
2023-10-10T14:36:40.237Z,23.30
2023-10-10T14:39:10.473Z,23.30
2023-10-10T14:41:42.553Z,23.30
2023-10-10T14:44:14.049Z,23.30
2023-10-10T14:46:42.583Z,23.30
2023-10-10T14:49:18.688Z,23.20
2023-10-10T14:51:49.525Z,23.20
2023-10-10T14:54:20.371Z,23.20
2023-10-10T14:56:51.281Z,23.20
2023-10-10T14:59:26.899Z,23.20
2023-10-10T15:02:00.874Z,23.20
2023-10-10T15:04:30.862Z,23.30
2023-10-10T15:07:00.847Z,23.40
2023-10-10T15:09:29.215Z,23.40
2023-10-10T15:12:00.602Z,23.40
2023-10-10T15:14:33.139Z,23.40
2023-10-10T15:17:05.536Z,23.40
2023-10-10T15:19:34.443Z,23.40
2023-10-10T15:22:02.901Z,23.40
2023-10-10T15:24:34.157Z,23.40
2023-10-10T15:27:02.642Z,23.40
2023-10-10T15:29:34.100Z,23.40
2023-10-10T15:32:04.705Z,23.50
2023-10-10T15:34:33.211Z,23.40
2023-10-10T15:37:11.021Z,23.40
2023-10-10T15:39:40.945Z,23.40
2023-10-10T15:42:09.407Z,23.40
2023-10-10T15:44:42.225Z,23.40
2023-10-10T15:47:10.957Z,23.40
2023-10-10T15:49:39.885Z,23.40
2023-10-10T15:52:08.618Z,23.40
2023-10-10T15:54:37.290Z,23.40
2023-10-10T15:57:10.384Z,23.40
2023-10-10T15:59:43.590Z,23.30
2023-10-10T16:02:15.154Z,23.40
2023-10-10T16:04:46.232Z,23.30
2023-10-10T16:07:17.613Z,23.30
2023-10-10T16:09:47.026Z,23.30
2023-10-10T16:12:16.152Z,23.30
2023-10-10T16:14:48.417Z,23.30
2023-10-10T16:17:17.955Z,23.30
2023-10-10T16:19:47.068Z,23.30
2023-10-10T16:22:16.271Z,23.30
2023-10-10T16:24:45.823Z,23.30
2023-10-10T16:27:15.436Z,23.30
2023-10-10T16:29:46.885Z,23.30
2023-10-10T16:32:19.203Z,23.30
2023-10-10T16:34:48.797Z,23.30
2023-10-10T16:37:19.771Z,23.30
2023-10-10T16:39:49.855Z,23.30
2023-10-10T16:42:20.900Z,23.30
2023-10-10T16:44:54.464Z,23.30
2023-10-10T16:47:23.296Z,23.30
2023-10-10T16:49:51.987Z,23.30
2023-10-10T16:52:21.917Z,23.30
2023-10-10T16:54:53.018Z,23.20
2023-10-10T16:57:24.426Z,23.20
2023-10-10T16:59:57.368Z,23.30
2023-10-10T17:02:30.083Z,23.20
2023-10-10T17:05:01.753Z,23.20
2023-10-10T17:07:30.759Z,23.20
2023-10-10T17:09:59.329Z,23.20
2023-10-10T17:12:27.959Z,23.20
2023-10-10T17:14:58.497Z,23.20
2023-10-10T17:17:27.160Z,23.30
2023-10-10T17:19:55.701Z,23.30
2023-10-10T17:22:24.580Z,23.20
2023-10-10T17:24:54.499Z,23.20
2023-10-10T17:27:23.061Z,23.30
2023-10-10T17:29:51.533Z,23.20
2023-10-10T17:32:21.533Z,23.20
2023-10-10T17:34:49.925Z,23.30
2023-10-10T17:37:18.348Z,23.20
2023-10-10T17:39:49.362Z,23.20
2023-10-10T17:42:17.802Z,23.20
2023-10-10T17:44:46.314Z,23.30
2023-10-10T17:47:16.311Z,23.20
2023-10-10T17:49:46.247Z,23.20
2023-10-10T17:52:14.625Z,23.20
2023-10-10T17:54:44.127Z,23.20
2023-10-10T17:57:14.838Z,23.20
2023-10-10T17:59:44.159Z,23.20
2023-10-10T18:02:12.661Z,23.20
2023-10-10T18:04:43.081Z,23.20
2023-10-10T18:07:13.059Z,23.30
2023-10-10T18:09:41.536Z,23.30
2023-10-10T18:12:12.897Z,23.30
2023-10-10T18:14:41.869Z,23.30
2023-10-10T18:17:11.408Z,23.20
2023-10-10T18:19:41.422Z,23.20
2023-10-10T18:22:09.961Z,23.20
2023-10-10T18:24:39.664Z,23.20
2023-10-10T18:27:08.108Z,23.20
2023-10-10T18:29:36.572Z,23.20
2023-10-10T18:32:05.638Z,23.20
2023-10-10T18:34:34.048Z,23.20
2023-10-10T18:37:03.323Z,23.30
2023-10-10T18:39:36.854Z,23.30
2023-10-10T18:42:10.210Z,23.30
2023-10-10T18:44:40.269Z,23.40
2023-10-10T18:47:11.973Z,23.40
2023-10-10T18:49:42.188Z,23.50
2023-10-10T18:52:13.450Z,23.50
2023-10-10T18:54:42.714Z,23.50
2023-10-10T18:57:13.649Z,23.60
2023-10-10T18:59:43.807Z,23.60
2023-10-10T19:02:12.336Z,23.60
2023-10-10T19:04:41.024Z,23.80
2023-10-10T19:07:09.511Z,23.80
2023-10-10T19:09:43.610Z,23.90
2023-10-10T19:12:17.039Z,23.90
2023-10-10T19:14:45.722Z,23.90
2023-10-10T19:17:15.625Z,23.90
2023-10-10T19:19:44.019Z,23.90
2023-10-10T19:22:12.458Z,23.80
2023-10-10T19:24:41.130Z,23.80
2023-10-10T19:27:13.459Z,23.90
2023-10-10T19:29:43.374Z,23.90
2023-10-10T19:32:14.973Z,23.90
2023-10-10T19:34:43.426Z,23.90
2023-10-10T19:37:11.869Z,23.90
2023-10-10T19:39:40.201Z,23.90
2023-10-10T19:42:08.651Z,23.90
2023-10-10T19:44:37.070Z,23.90
2023-10-10T19:47:09.967Z,23.90
2023-10-10T19:49:38.316Z,23.90
2023-10-10T19:52:07.029Z,23.90
2023-10-10T19:54:36.963Z,23.90
2023-10-10T19:57:05.679Z,23.90
2023-10-10T19:59:34.727Z,23.90
2023-10-10T20:02:03.438Z,23.90
2023-10-10T20:04:33.473Z,23.90
2023-10-10T20:07:01.843Z,23.90
2023-10-10T20:09:36.330Z,23.90
2023-10-10T20:12:05.307Z,23.90
2023-10-10T20:14:36.117Z,23.90
2023-10-10T20:17:04.661Z,23.90
2023-10-10T20:19:34.540Z,23.90
2023-10-10T20:22:03.287Z,23.90
2023-10-10T20:24:31.598Z,23.90
2023-10-10T20:27:02.592Z,23.90
2023-10-10T20:29:33.842Z,23.80
2023-10-10T20:32:02.356Z,23.80
2023-10-10T20:34:30.754Z,23.80
2023-10-10T20:37:00.568Z,23.80
2023-10-10T20:39:28.914Z,23.80
2023-10-10T20:41:58.949Z,23.80
2023-10-10T20:44:27.746Z,23.80
2023-10-10T20:46:56.218Z,23.70
2023-10-10T20:49:24.799Z,23.70
2023-10-10T20:51:55.809Z,23.70
2023-10-10T20:54:27.248Z,23.70
2023-10-10T20:56:55.730Z,23.70
2023-10-10T20:59:26.212Z,23.70
2023-10-10T21:01:54.532Z,23.60
2023-10-10T21:04:23.010Z,23.60
2023-10-10T21:06:51.618Z,23.60
2023-10-10T21:09:21.083Z,23.60
2023-10-10T21:11:52.745Z,23.60
2023-10-10T21:14:22.486Z,23.60
2023-10-10T21:16:51.214Z,23.60
2023-10-10T21:19:19.679Z,23.60
2023-10-10T21:21:48.131Z,23.60
2023-10-10T21:24:16.497Z,23.60
2023-10-10T21:26:46.017Z,23.50
2023-10-10T21:29:22.517Z,23.60
2023-10-10T21:39:10.742Z,23.60
2023-10-10T21:41:39.731Z,23.60
2023-10-10T21:51:08.785Z,23.50
2023-10-10T21:53:38.968Z,23.50
2023-10-10T21:56:08.484Z,23.50
2023-10-10T21:58:40.008Z,23.50
2023-10-10T22:01:12.919Z,23.50
2023-10-10T22:03:45.995Z,23.50
2023-10-10T22:06:14.949Z,23.50
2023-10-10T22:08:45.015Z,23.50
2023-10-10T22:11:14.290Z,23.50
2023-10-10T22:13:42.722Z,23.50
2023-10-10T22:16:11.809Z,23.50
2023-10-10T22:18:40.577Z,23.40
2023-10-10T22:21:12.203Z,23.40
2023-10-10T22:23:41.022Z,23.50
2023-10-10T22:26:10.389Z,23.50
2023-10-10T22:28:39.986Z,23.50
2023-10-10T22:31:15.000Z,23.50
2023-10-10T22:33:45.157Z,23.40
2023-10-10T22:36:16.948Z,23.40
2023-10-10T22:38:46.334Z,23.40
2023-10-10T22:41:15.218Z,23.40
2023-10-10T22:43:46.037Z,23.40
2023-10-10T22:46:14.788Z,23.40
2023-10-10T22:48:44.596Z,23.40
2023-10-10T22:51:14.866Z,23.40
2023-10-10T22:53:47.291Z,23.40
2023-10-10T22:56:19.241Z,23.40
2023-10-10T22:58:48.353Z,23.40
2023-10-10T23:12:56.702Z,23.50
2023-10-10T23:15:28.343Z,23.50
2023-10-10T23:17:59.567Z,23.60
2023-10-10T23:20:34.731Z,23.60
2023-10-10T23:23:10.124Z,23.60
2023-10-10T23:25:41.547Z,23.60
2023-10-10T23:28:12.643Z,23.60
2023-10-10T23:33:43.701Z,23.60
2023-10-10T23:36:12.555Z,23.50
2023-10-10T23:38:45.413Z,23.60
2023-10-10T23:41:25.457Z,23.60
2023-10-10T23:43:55.326Z,23.60
2023-10-10T23:46:24.463Z,23.60
2023-10-10T23:48:55.883Z,23.60
2023-10-10T23:51:24.309Z,23.60
2023-10-10T23:53:52.818Z,23.60
2023-10-10T23:56:22.246Z,23.50
2023-10-10T23:58:53.154Z,23.50
